• Join FlightAware (Why Join?)
  • Login
  • US Flag 
Rudolph Flight #1: Arrived! 
06:57AM EST


 

Airport Tracker/Info


-or-


 

Live Flight TrackerFlight Track Log ✈ N682RW ✈ 01-May-2013 ✈ KDTW - KHOU

Flight Track Log - Related Links

Times and Time Zones

All times are in EDT time to prevent confusion due to time zone crossing. See the N682RW flight status page for this flight to view local times or setup timezone preferences in your user account.

Time Position Orientation Groundspeed Altitude Reporting Facility
EDT Latitude Longitude Course Direction KTS MPH feet Rate Location/Type
06:26PM 42.1892 -83.3578 221° Southwest 188 216 1,400  Level Cleveland Center
06:26PM 42.1569 -83.3956 221° Southwest 231 266 2,800 2,340 Climbing Cleveland Center
06:27PM 42.0992 -83.4489 214° Southwest 256 295 5,500 2,580 Climbing Cleveland Center
06:29PM 42.0272 -83.4986 207° Southwest 279 321 8,400 2,220 Climbing Cleveland Center
06:30PM 41.9414 -83.5089 185° South 280 322 10,500 1,800 Climbing Cleveland Center
06:31PM 41.8489 -83.5353 192° South 296 341 12,200 2,040 Climbing Cleveland Center
06:32PM 41.7525 -83.5558 189° South 328 377 14,600 2,220 Climbing Cleveland Center
06:33PM 41.6456 -83.5814 190° South 367 422 16,700 2,160 Climbing Cleveland Center
06:34PM 41.5425 -83.6128 193° South 380 437 19,000 1,920 Climbing Cleveland Center
06:35PM 41.4394 -83.6467 194° South 385 443 20,600 1,560 Climbing Cleveland Center
06:36PM 41.3533 -83.7478 221° Southwest 390 449 22,200 1,620 Climbing Cleveland Center
06:37PM 41.2689 -83.8542 223° Southwest 410 472 23,900 1,440 Climbing Cleveland Center
06:38PM 41.1264 -84.0325 223° Southwest 426 490 26,200 1,200 Climbing Indianapolis Center
06:39PM 41.0281 -84.1556 223° Southwest 439 505 27,400 1,140 Climbing Indianapolis Center
06:40PM 40.9364 -84.2681 223° Southwest 447 514 28,600 960 Climbing Indianapolis Center
06:42PM 40.8442 -84.3831 223° Southwest 454 522 29,500 1,260 Climbing Indianapolis Center
06:43PM 40.7517 -84.4956 223° Southwest 449 517 31,300 1,200 Climbing Indianapolis Center
06:44PM 40.6631 -84.6047 223° Southwest 437 503 32,000 300 Climbing Indianapolis Center
06:45PM 40.5722 -84.7150 223° Southwest 441 507 32,000  Level Indianapolis Center
06:46PM 40.4681 -84.8425 223° Southwest 436 502 32,000  Level Indianapolis Center
06:47PM 40.3783 -84.9486 222° Southwest 437 503 32,000  Level Indianapolis Center
06:48PM 40.2906 -85.0569 223° Southwest 431 496 32,000  Level Indianapolis Center
06:49PM 40.2011 -85.1625 222° Southwest 429 494 32,000  Level Indianapolis Center
06:50PM 40.1122 -85.2683 222° Southwest 430 495 32,000  Level Indianapolis Center
06:51PM 40.0225 -85.3753 222° Southwest 432 497 32,000  Level Indianapolis Center
06:52PM 39.9183 -85.4994 222° Southwest 431 496 32,000  Level Indianapolis Center
06:53PM 39.8278 -85.6058 222° Southwest 434 499 32,000  Level Indianapolis Center
06:54PM 39.7369 -85.7114 222° Southwest 433 498 32,000  Level Indianapolis Center
06:55PM 39.6478 -85.8181 223° Southwest 432 497 32,000  Level Indianapolis Center
06:56PM 39.5569 -85.9236 222° Southwest 432 497 32,000  Level Indianapolis Center
06:57PM 39.4658 -86.0292 222° Southwest 432 497 32,000  Level Indianapolis Center
06:58PM 39.3750 -86.1353 222° Southwest 433 498 32,000  Level Indianapolis Center
06:59PM 39.2828 -86.2411 222° Southwest 438 504 32,000  Level Indianapolis Center
07:00PM 39.1922 -86.3467 222° Southwest 436 502 32,000  Level Indianapolis Center
07:01PM 39.0856 -86.4689 222° Southwest 437 503 32,000  Level Indianapolis Center
07:02PM 38.9939 -86.5733 222° Southwest 437 503 32,000  Level Indianapolis Center
07:03PM 38.9125 -86.6656 221° Southwest 437 503 32,000  Level Indianapolis Center
07:04PM 38.8047 -86.7872 221° Southwest 430 495 32,000  Level Indianapolis Center
07:05PM 38.7144 -86.8889 221° Southwest 431 496 32,000  Level Indianapolis Center
07:06PM 38.6239 -86.9908 221° Southwest 435 501 32,000  Level Indianapolis Center
07:07PM 38.5342 -87.0919 221° Southwest 433 498 32,000  Level Indianapolis Center
07:08PM 38.4444 -87.1931 221° Southwest 436 502 32,000  Level Indianapolis Center
07:09PM 38.3364 -87.3128 221° Southwest 437 503 32,000  Level Indianapolis Center
07:10PM 38.2467 -87.4128 221° Southwest 433 498 32,000  Level Indianapolis Center
07:12PM 38.1544 -87.5139 221° Southwest 437 503 32,000  Level Indianapolis Center
07:13PM 38.0625 -87.6142 221° Southwest 437 503 32,000  Level Indianapolis Center
07:14PM 37.9711 -87.7156 221° Southwest 435 501 32,000  Level Indianapolis Center
07:15PM 37.8839 -87.8233 224° Southwest 437 503 32,000  Level Indianapolis Center
07:16PM 37.8042 -87.9408 229° Southwest 439 505 32,000  Level Indianapolis Center
07:17PM 37.7069 -88.0828 229° Southwest 435 501 32,000  Level Indianapolis Center
07:18PM 37.6261 -88.1983 229° Southwest 436 502 32,000  Level Indianapolis Center
07:18PM 37.5831 -88.2739 234° Southwest 445 512 32,000  Level Memphis Center
07:19PM 37.5472 -88.3125 221° Southwest 440 506 32,000  Level Indianapolis Center
07:19PM 37.5017 -88.3858 232° Southwest 440 506 32,000  Level Memphis Center
07:20PM 37.4200 -88.5003 228° Southwest 440 506 32,000  Level Memphis Center
07:21PM 37.3364 -88.6194 229° Southwest 446 513 32,000  Level Memphis Center
07:22PM 37.2547 -88.7361 229° Southwest 446 513 32,000  Level Memphis Center
07:23PM 37.1747 -88.8497 229° Southwest 446 513 32,000  Level Memphis Center
07:24PM 37.0928 -88.9656 228° Southwest 446 513 32,000  Level Memphis Center
07:25PM 37.0106 -89.0786 228° Southwest 446 513 32,000  Level Memphis Center
07:26PM 36.9286 -89.1942 228° Southwest 446 513 32,000  Level Memphis Center
07:27PM 36.8442 -89.3094 228° Southwest 451 519 32,000  Level Memphis Center
07:28PM 36.7594 -89.4219 227° Southwest 451 519 32,000  Level Memphis Center
07:29PM 36.6792 -89.5367 229° Southwest 451 519 32,000  Level Memphis Center
07:30PM 36.5964 -89.6539 229° Southwest 451 519 32,000  Level Memphis Center
07:31PM 36.5094 -89.7658 226° Southwest 451 519 32,000  Level Memphis Center
07:32PM 36.4267 -89.8797 228° Southwest 451 519 32,000  Level Memphis Center
07:33PM 36.3436 -89.9936 228° Southwest 451 519 32,000  Level Memphis Center
07:34PM 36.2606 -90.1047 227° Southwest 451 519 32,000  Level Memphis Center
07:35PM 36.1772 -90.2181 228° Southwest 446 513 32,000  Level Memphis Center
07:36PM 36.0919 -90.3286 226° Southwest 451 519 32,000  Level Memphis Center
07:37PM 36.0083 -90.4417 228° Southwest 451 519 32,000  Level Memphis Center
07:38PM 35.9228 -90.5519 226° Southwest 451 519 32,000  Level Memphis Center
07:39PM 35.8392 -90.6669 228° Southwest 451 519 32,000  Level Memphis Center
07:40PM 35.7556 -90.7767 227° Southwest 451 519 32,000  Level Memphis Center
07:41PM 35.6736 -90.8911 229° Southwest 442 509 32,000  Level Memphis Center
07:42PM 35.5981 -90.9903 227° Southwest 442 509 32,000  Level Memphis Center
07:43PM 35.5119 -91.1044 227° Southwest 448 516 32,000  Level Memphis Center
07:44PM 35.4258 -91.2158 227° Southwest 454 522 32,000  Level Memphis Center
07:45PM 35.3394 -91.3269 226° Southwest 454 522 32,000  Level Memphis Center
07:46PM 35.2531 -91.4403 227° Southwest 454 522 32,000  Level Memphis Center
07:47PM 35.1644 -91.5508 226° Southwest 454 522 32,000  Level Memphis Center
07:48PM 35.0819 -91.6639 228° Southwest 454 522 32,000  Level Memphis Center
07:49PM 34.9931 -91.7792 227° Southwest 454 522 32,000  Level Memphis Center
07:50PM 34.9061 -91.8892 226° Southwest 454 522 32,000  Level Memphis Center
07:51PM 34.8192 -91.9989 226° Southwest 454 522 32,000  Level Memphis Center
07:52PM 34.7322 -92.1133 227° Southwest 454 522 32,000  Level Memphis Center
07:53PM 34.6269 -92.1869 210° Southwest 449 517 32,000  Level Memphis Center
07:54PM 34.5033 -92.2119 189° South 435 501 32,000  Level Memphis Center
07:55PM 34.3797 -92.2369 189° South 441 507 32,000 480 Level Memphis Center
07:56PM 34.2606 -92.2594 189° South 441 507 33,000 900 Climbing Memphis Center
07:57PM 34.1328 -92.2819 188° South 441 507 33,900 480 Climbing Memphis Center
07:58PM 34.0114 -92.3092 191° South 441 507 34,000  Climbing Memphis Center
08:00PM 33.8536 -92.3367 188° South 415 478 34,000  Level Fort Worth Center
08:01PM 33.7294 -92.3586 188° South 429 494 34,000  Level Fort Worth Center
08:02PM 33.6092 -92.3781 188° South 439 505 34,000  Level Fort Worth Center
08:03PM 33.4933 -92.4022 190° South 439 505 34,000  Level Fort Worth Center
08:04PM 33.3731 -92.4214 188° South 439 505 34,000  Level Fort Worth Center
08:05PM 33.2528 -92.4431 189° South 446 513 34,000  Level Fort Worth Center
08:06PM 33.1575 -92.4608 189° South 440 506 34,000  Level Fort Worth Center
08:07PM 33.0269 -92.4856 189° South 440 506 34,000  Level Fort Worth Center
08:08PM 32.9089 -92.5069 189° South 433 498 34,000  Level Fort Worth Center
08:09PM 32.7908 -92.5281 189° South 433 498 34,000  Level Fort Worth Center
08:10PM 32.6847 -92.5931 207° Southwest 423 487 34,000  Level Fort Worth Center
08:11PM 32.5836 -92.6822 217° Southwest 430 495 34,000  Level Fort Worth Center
08:12PM 32.4847 -92.7664 216° Southwest 440 506 34,000  Level Fort Worth Center
08:13PM 32.3236 -92.9064 216° Southwest 442 509 34,000  Level Houston Center
08:14PM 32.2236 -92.9892 215° Southwest 442 509 34,000  Level Houston Center
08:15PM 32.1233 -93.0722 215° Southwest 443 510 34,000  Level Houston Center
08:16PM 32.0217 -93.1569 215° Southwest 447 514 34,000  Level Houston Center
08:17PM 31.9203 -93.2419 215° Southwest 449 517 34,000  Level Houston Center
08:18PM 31.7989 -93.3431 215° Southwest 449 517 34,000  Level Houston Center
08:19PM 31.6972 -93.4289 216° Southwest 451 519 34,000  Level Houston Center
08:20PM 31.5994 -93.5217 219° Southwest 453 521 34,000  Level Houston Center
08:21PM 31.4853 -93.6250 218° Southwest 455 524 34,000 -600 Level Houston Center
08:22PM 31.3831 -93.7167 217° Southwest 458 527 32,800 -2,340 Descending Houston Center
08:24PM 31.2768 -93.7900 221° Southwest  Level FlightAware Approximate
08:26PM 31.0808 -93.9903 218° Southwest 454 522 24,500  Level Houston Center
08:27PM 30.9828 -94.0783 218° Southwest 443 510 21,700 -2,580 Descending Houston Center
08:28PM 30.8894 -94.1639 218° Southwest 435 501 19,200 -2,100 Descending Houston Center
08:29PM 30.7969 -94.2458 217° Southwest 424 488 17,500 -1,740 Descending Houston Center
08:29PM 30.7208 -94.3150 218° Southwest 406 467 16,300 -1,380 Descending Houston Center
08:30PM 30.7106 -94.3242 217° Southwest 407 468 16,100 -960 Descending Houston Center
08:30PM 30.6514 -94.3778 218° Southwest 396 456 15,500 -1,200 Descending Houston Center
08:31PM 30.6464 -94.3658 218° Southwest  Level FlightAware Approximate
08:31PM 30.6067 -94.4169 217° Southwest 396 456 14,900  Level Houston Center
08:31PM 30.5567 -94.4606 217° Southwest 389 448 14,300 -1,020 Descending Houston Center
08:32PM 30.5219 -94.4931 219° Southwest 389 448 13,900 -1,020 Descending Houston Center
08:32PM 30.4842 -94.5356 224° Southwest 383 441 13,400 -900 Descending Houston Center
08:33PM 30.4494 -94.5869 232° Southwest 374 430 13,000 -360 Descending Houston Center
08:33PM 30.4128 -94.6467 235° Southwest 368 423 13,000  Level Houston Center
08:34PM 30.3883 -94.6850 234° Southwest 365 420 13,000  Level Houston Center
08:34PM 30.3542 -94.7364 232° Southwest 347 399 13,000 -240 Level Houston Center
08:35PM 30.3306 -94.7742 234° Southwest 350 403 12,800 -720 Descending Houston Center
08:35PM 30.2956 -94.8264 232° Southwest 348 400 12,300 -900 Descending Houston Center
08:36PM 30.2725 -94.8644 235° Southwest 349 402 11,900 -900 Descending Houston Center
08:36PM 30.2369 -94.9158 231° Southwest 349 402 11,400 -900 Descending Houston Center
08:37PM 30.2147 -94.9522 235° Southwest 345 397 11,000 -1,140 Descending Houston Center
08:37PM 30.1858 -94.9972 233° Southwest 344 396 10,400 -1,020 Descending Houston Center
08:38PM 30.1586 -95.0403 234° Southwest 342 394 10,000 -360 Descending Houston Center
08:38PM 30.1100 -95.0842 218° Southwest 346 398 10,000  Level Houston Center
08:39PM 30.0781 -95.0967 199° South 352 405 10,000  Level Houston Center
08:39PM 30.0169 -95.1222 200° South 356 410 10,000  Level Houston Center
08:40PM 29.9689 -95.1436 201° Southwest 350 403 10,000  Level Houston Center
08:40PM 29.9322 -95.1592 200° South 351 404 10,000  Level Houston Center
08:41PM 29.8758 -95.1831 200° South 355 409 10,000 -120 Level Houston Center
08:41PM 29.8272 -95.2056 202° Southwest 340 391 9,900 -540 Descending Houston Center
08:42PM 29.7883 -95.2206 199° South 344 396 9,500 -1,020 Descending Houston Center
08:42PM 29.7417 -95.2353 195° South 311 358 8,900 -1,200 Descending Houston Center
08:43PM 29.7050 -95.2347 179° South 315 362 8,300 -1,320 Descending Houston Center
08:43PM 29.6536 -95.2364 182° South 310 357 7,600 -1,200 Descending Houston Center
08:44PM 29.6208 -95.2378 182° South 313 360 7,100 -1,080 Descending Houston Center
08:44PM 29.5761 -95.2386 181° South 305 351 6,600 -900 Descending Houston Center
08:45PM 29.5306 -95.2661 208° Southwest 302 348 6,200 -420 Descending Houston Center
08:45PM 29.5139 -95.2917 233° Southwest 264 304 6,200 -720 Level Houston Center
08:46PM 29.4894 -95.3322 235° Southwest 263 303 5,500 -1,920 Descending Houston Center
08:47PM 29.4917 -95.3714 274° West 237 273 4,100 -2,460 Descending Houston Center
08:47PM 29.5156 -95.3936 321° Northwest 243 280 3,000 -1,980 Descending Houston Center
08:47PM 29.5417 -95.3892 North 223 257 2,300 -1,020 Descending Houston Center
08:48PM 29.5664 -95.3631 43° Northeast 224 258 2,000 -660 Descending Houston Center
08:49PM 29.5878 -95.3428 40° Northeast 186 214 1,600 -900 Descending Houston Center
08:49PM 29.6044 -95.3242 44° Northeast 199 229 1,100 -1,080 Descending Houston Center
08:49PM 29.6183 -95.3103 41° Northeast 148 170 600 -900 Descending Houston Center
08:50PM 29.6350 -95.2903 46° Northeast 171 197 200 -600 Descending Houston Center